Terminal Aerodrome Forecast
Issued by NWS Memphis, TN

Home | Current Version | Previous Version | Text Only | Print | Product List | Glossary On
Versions: 1 2 3 4 5 6 7 8 9 10 11 12 13 14 15 16 17 18
158
FTUS44 KMEG 211739
TAFJBR
TAF
KJBR 211739Z 2118/2218 18011G18KT P6SM BKN200
     FM220400 09004KT 6SM -SHRA VCTS SCT025CB OVC100
      TEMPO 2205/2207 2SM TSRA BKN005 OVC015CB
     FM220700 12008KT 3SM -SHRA VCSH OVC005
     FM221400 24008KT P6SM VCSH SCT005 OVC010=

USA.gov is the U.S. government's official web portal to all federal, state and local government web resources and services.